createdAt,value
2019-02-14T00:00:02.224Z,148438.08
2019-02-14T00:01:07.602Z,148441.25
2019-02-14T00:02:13.681Z,148426.70
2019-02-14T00:03:19.593Z,148442.53
2019-02-14T00:04:25.490Z,148462.69
2019-02-14T00:05:31.452Z,148462.05
2019-02-14T00:06:37.341Z,148467.13
2019-02-14T00:07:43.309Z,148493.00
2019-02-14T00:08:49.217Z,148515.06
2019-02-14T00:09:55.127Z,148450.09
2019-02-14T00:11:01.070Z,148418.50
2019-02-14T00:12:06.954Z,148369.94
2019-02-14T00:13:12.887Z,148340.31
2019-02-14T00:14:18.766Z,148315.72
2019-02-14T00:15:24.677Z,148297.42
2019-02-14T00:16:30.625Z,148356.08
2019-02-14T00:17:36.539Z,148392.63
2019-02-14T00:18:43.381Z,148394.53
2019-02-14T00:19:49.242Z,148378.14
2019-02-14T00:20:55.181Z,148397.70
2019-02-14T00:22:01.161Z,148452.58
2019-02-14T00:23:07.077Z,148442.53
2019-02-14T00:24:12.956Z,148414.75
2019-02-14T00:25:18.870Z,148405.91
2019-02-14T00:26:24.747Z,148393.91
2019-02-14T00:27:30.692Z,148396.44
2019-02-14T00:28:36.624Z,148406.55
2019-02-14T00:29:42.647Z,148411.56
2019-02-14T00:30:48.563Z,148439.34
2019-02-14T00:31:54.476Z,148437.44
2019-02-14T00:33:00.368Z,148433.05
2019-02-14T00:34:06.267Z,148427.97
2019-02-14T00:35:11.503Z,148436.81
2019-02-14T00:36:17.449Z,148460.14
2019-02-14T00:37:23.374Z,148505.59
2019-02-14T00:38:28.996Z,148501.84
2019-02-14T00:39:35.735Z,148523.28
2019-02-14T00:40:41.643Z,148558.63
2019-02-14T00:41:48.189Z,148538.41
2019-02-14T00:42:54.486Z,148572.50
2019-02-14T00:44:00.375Z,148571.86
2019-02-14T00:45:05.624Z,148601.56
2019-02-14T00:46:11.550Z,148587.64
2019-02-14T00:47:17.197Z,148541.59
2019-02-14T00:48:23.154Z,148516.97
2019-02-14T00:49:29.056Z,148495.48
2019-02-14T00:50:35.054Z,148516.34
2019-02-14T00:51:40.964Z,148530.84
2019-02-14T00:52:46.883Z,148548.52
2019-02-14T00:53:52.771Z,148497.39
2019-02-14T00:54:58.697Z,148475.33
2019-02-14T00:56:04.626Z,148499.30
2019-02-14T00:57:10.516Z,148493.64
2019-02-14T00:58:16.416Z,148505.59
2019-02-14T00:59:22.354Z,148494.86
2019-02-14T01:00:28.250Z,148462.69
2019-02-14T01:01:33.930Z,148443.73
2019-02-14T01:02:39.853Z,148472.78
2019-02-14T01:03:45.830Z,148456.39
2019-02-14T01:04:51.697Z,148476.59
2019-02-14T01:05:57.633Z,148467.75
2019-02-14T01:07:03.325Z,148431.78
2019-02-14T01:08:09.296Z,148412.84
2019-02-14T01:09:15.198Z,148393.91
2019-02-14T01:10:21.136Z,148357.98
2019-02-14T01:11:26.707Z,148376.23
2019-02-14T01:12:32.616Z,148352.91
2019-02-14T01:13:38.529Z,148354.81
2019-02-14T01:14:44.440Z,148356.08
2019-02-14T01:15:50.194Z,148332.75
2019-02-14T01:16:56.098Z,148340.95
2019-02-14T01:18:02.004Z,148351.00
2019-02-14T01:19:07.929Z,148385.06
2019-02-14T01:20:13.833Z,148394.53
2019-02-14T01:21:19.796Z,148441.89
2019-02-14T01:22:25.714Z,148413.47
2019-02-14T01:23:31.277Z,148442.53
2019-02-14T01:24:37.225Z,148416.66
2019-02-14T01:25:43.386Z,148383.22
2019-02-14T01:26:49.296Z,148367.41
2019-02-14T01:27:55.203Z,148356.72
2019-02-14T01:29:00.789Z,148362.37
2019-02-14T01:30:06.002Z,148391.41
2019-02-14T01:31:11.938Z,148404.64
2019-02-14T01:32:17.843Z,148309.37
2019-02-14T01:33:23.750Z,148285.42
2019-02-14T01:34:29.698Z,148296.80
2019-02-14T01:35:41.806Z,148332.75
2019-02-14T01:36:41.584Z,148284.78
2019-02-14T01:37:48.269Z,148281.66
2019-02-14T01:38:53.456Z,148271.56
2019-02-14T01:39:59.386Z,148276.59
2019-02-14T01:41:05.326Z,148298.06
2019-02-14T01:42:11.208Z,148342.81
2019-02-14T01:43:17.148Z,148388.25
2019-02-14T01:44:23.058Z,148419.14
2019-02-14T01:45:28.995Z,148399.61
2019-02-14T01:46:35.006Z,148375.59
2019-02-14T01:47:40.931Z,148363.64
2019-02-14T01:48:46.922Z,148347.88
2019-02-14T01:49:52.851Z,148344.72
2019-02-14T01:50:58.811Z,148342.81
2019-02-14T01:52:04.698Z,148321.38
2019-02-14T01:53:10.618Z,148298.69
2019-02-14T01:54:16.136Z,148270.94
2019-02-14T01:55:22.301Z,148264.64
2019-02-14T01:56:28.221Z,148272.83
2019-02-14T01:57:34.138Z,148275.33
2019-02-14T01:58:40.060Z,148292.98
2019-02-14T01:59:45.967Z,148301.81
2019-02-14T02:00:51.575Z,148287.95
2019-02-14T02:02:01.759Z,148291.72
2019-02-14T02:03:07.693Z,148317.58
2019-02-14T02:04:13.648Z,148328.95
2019-02-14T02:05:19.601Z,148329.58
2019-02-14T02:06:25.481Z,148283.52
2019-02-14T02:07:32.096Z,148231.22
2019-02-14T02:08:38.194Z,148225.52
2019-02-14T02:09:43.893Z,148224.25
2019-02-14T02:10:49.780Z,148235.61
2019-02-14T02:11:55.716Z,148236.88
2019-02-14T02:13:01.700Z,148223.61
2019-02-14T02:14:07.640Z,148206.00
2019-02-14T02:15:12.636Z,148194.00
2019-02-14T02:16:18.553Z,148171.33
2019-02-14T02:17:24.460Z,148148.59
2019-02-14T02:18:30.361Z,148163.77
2019-02-14T02:19:36.300Z,148157.42
2019-02-14T02:20:42.255Z,148132.84
2019-02-14T02:21:48.204Z,148100.72
2019-02-14T02:22:54.106Z,148098.81
2019-02-14T02:24:00.070Z,148122.17
2019-02-14T02:25:06.070Z,148159.97
2019-02-14T02:26:11.987Z,148175.72
2019-02-14T02:27:17.870Z,148168.16
2019-02-14T02:28:24.498Z,148180.78
2019-02-14T02:29:31.006Z,148180.78
2019-02-14T02:30:36.956Z,148175.72
2019-02-14T02:31:42.863Z,148175.08
2019-02-14T02:32:48.761Z,148191.47
2019-02-14T02:33:54.633Z,148207.22
2019-02-14T02:35:00.599Z,148227.41
2019-02-14T02:36:06.504Z,148217.31
2019-02-14T02:37:12.483Z,148245.08
2019-02-14T02:38:18.429Z,148215.42
2019-02-14T02:39:24.358Z,148269.66
2019-02-14T02:40:30.270Z,148293.62
2019-02-14T02:41:36.200Z,148253.28
2019-02-14T02:42:42.128Z,148224.87
2019-02-14T02:43:48.072Z,148202.83
2019-02-14T02:44:54.002Z,148233.72
2019-02-14T02:45:59.950Z,148221.13
2019-02-14T02:47:05.878Z,148217.95
2019-02-14T02:48:12.617Z,148226.78
2019-02-14T02:49:19.448Z,148207.84
2019-02-14T02:50:25.896Z,148233.08
2019-02-14T02:51:31.824Z,148215.42
2019-02-14T02:52:37.731Z,148175.08
2019-02-14T02:53:43.643Z,148181.38
2019-02-14T02:54:49.592Z,148190.20
2019-02-14T02:55:54.862Z,148218.59
2019-02-14T02:57:00.777Z,148235.61
2019-02-14T02:58:06.346Z,148175.08
2019-02-14T02:59:14.140Z,148124.02
2019-02-14T03:00:17.591Z,148100.08
2019-02-14T03:01:23.469Z,148067.31
2019-02-14T03:02:29.371Z,148101.34
2019-02-14T03:03:35.291Z,148129.72
2019-02-14T03:04:40.854Z,148131.58
2019-02-14T03:05:46.775Z,148084.97
2019-02-14T03:06:52.724Z,148084.97
2019-02-14T03:07:58.609Z,148069.84
2019-02-14T03:09:03.618Z,148035.81
2019-02-14T03:10:10.434Z,148027.63
2019-02-14T03:11:16.851Z,148020.70
2019-02-14T03:12:22.628Z,147999.25
2019-02-14T03:13:28.562Z,147972.80
2019-02-14T03:14:34.457Z,147954.52
2019-02-14T03:15:40.395Z,147965.87
2019-02-14T03:16:46.313Z,147960.22
2019-02-14T03:17:52.231Z,147987.27
2019-02-14T03:18:58.198Z,147992.34
2019-02-14T03:20:03.467Z,147960.22
2019-02-14T03:21:09.438Z,147954.52
2019-02-14T03:22:15.365Z,147965.25
2019-02-14T03:23:21.304Z,147953.30
2019-02-14T03:24:27.250Z,147960.22
2019-02-14T03:25:33.205Z,147944.47
2019-02-14T03:26:39.141Z,147940.67
2019-02-14T03:27:45.045Z,147948.87
2019-02-14T03:28:50.998Z,147950.13
2019-02-14T03:29:56.980Z,147947.59
2019-02-14T03:31:03.802Z,147971.53
2019-02-14T03:32:10.192Z,147962.70
2019-02-14T03:33:16.088Z,147951.41
2019-02-14T03:34:21.968Z,147927.47
2019-02-14T03:35:27.906Z,147909.83
2019-02-14T03:36:33.862Z,147910.47
2019-02-14T03:37:39.429Z,147916.75
2019-02-14T03:38:45.330Z,147943.22
2019-02-14T03:39:51.303Z,147965.87
2019-02-14T03:40:57.300Z,147972.80
2019-02-14T03:42:02.997Z,147977.86
2019-02-14T03:43:08.894Z,147946.97
2019-02-14T03:44:14.809Z,147924.94
2019-02-14T03:45:20.088Z,147922.41
2019-02-14T03:46:25.997Z,147916.13
2019-02-14T03:47:31.969Z,147911.09
2019-02-14T03:48:37.995Z,147894.69
2019-02-14T03:49:44.470Z,147894.69
2019-02-14T03:50:50.090Z,147885.91
2019-02-14T03:51:56.309Z,147883.38
2019-02-14T03:53:02.730Z,147902.28
2019-02-14T03:54:08.282Z,147945.06
2019-02-14T03:55:14.242Z,147920.50
2019-02-14T03:56:20.178Z,147897.22
2019-02-14T03:57:26.089Z,147857.56
2019-02-14T03:58:31.995Z,147835.48
2019-02-14T03:59:37.970Z,147865.73
2019-02-14T04:00:43.901Z,147884.64
2019-02-14T04:01:49.832Z,147867.64
2019-02-14T04:02:55.857Z,147851.91
2019-02-14T04:04:01.938Z,147831.09
2019-02-14T04:05:07.174Z,147813.47
2019-02-14T04:06:12.792Z,147799.63
2019-02-14T04:07:18.018Z,147799.63
2019-02-14T04:08:23.903Z,147804.66
2019-02-14T04:09:29.847Z,147811.56
2019-02-14T04:10:35.784Z,147838.02
2019-02-14T04:11:41.694Z,147860.72
2019-02-14T04:12:47.619Z,147884.64
2019-02-14T04:13:53.539Z,147877.09
2019-02-14T04:14:59.433Z,147846.20
2019-02-14T04:16:05.410Z,147836.12
2019-02-14T04:17:11.358Z,147844.94
2019-02-14T04:18:17.292Z,147882.75
2019-02-14T04:19:23.243Z,147946.33
2019-02-14T04:20:29.174Z,147987.91
2019-02-14T04:21:35.111Z,147991.08
2019-02-14T04:22:41.032Z,147994.88
2019-02-14T04:23:46.947Z,147984.78
2019-02-14T04:24:52.888Z,147895.31
2019-02-14T04:25:58.837Z,147829.83
2019-02-14T04:27:04.476Z,147756.19
2019-02-14T04:28:10.382Z,147778.84
2019-02-14T04:29:16.321Z,147849.38
2019-02-14T04:30:22.306Z,147912.31
2019-02-14T04:31:28.282Z,147931.22
2019-02-14T04:32:34.204Z,147957.69
2019-02-14T04:33:40.125Z,147936.30
2019-02-14T04:34:46.710Z,147937.50
2019-02-14T04:35:53.114Z,147954.52
2019-02-14T04:36:59.293Z,147957.69
2019-02-14T04:38:05.187Z,147908.56
2019-02-14T04:39:11.091Z,147880.20
2019-02-14T04:40:17.007Z,147863.84
2019-02-14T04:41:22.975Z,147871.39
2019-02-14T04:42:28.927Z,147848.09
2019-02-14T04:43:34.795Z,147805.28
2019-02-14T04:44:40.705Z,147800.27
2019-02-14T04:45:46.722Z,147846.83
2019-02-14T04:46:52.630Z,147848.73
2019-02-14T04:47:58.583Z,147844.30
2019-02-14T04:49:04.550Z,147826.72
2019-02-14T04:50:09.796Z,147806.55
2019-02-14T04:51:15.752Z,147800.27
2019-02-14T04:52:21.713Z,147790.19
2019-02-14T04:53:27.690Z,147776.94
2019-02-14T04:54:33.644Z,147761.84
2019-02-14T04:55:40.108Z,147764.38
2019-02-14T04:56:46.560Z,147766.91
2019-02-14T04:57:52.484Z,147757.45
2019-02-14T04:58:58.449Z,147747.38
2019-02-14T05:00:03.751Z,147770.66
2019-02-14T05:01:09.722Z,147783.27
2019-02-14T05:02:15.613Z,147859.45
2019-02-14T05:03:21.570Z,147928.69
2019-02-14T05:04:27.469Z,147957.05
2019-02-14T05:05:33.451Z,147954.52
2019-02-14T05:06:44.419Z,147934.39
2019-02-14T05:07:45.054Z,147936.30
2019-02-14T05:08:50.946Z,147957.69
2019-02-14T05:09:56.894Z,147945.70
2019-02-14T05:11:02.859Z,147994.25
2019-02-14T05:12:08.795Z,148002.44
2019-02-14T05:13:14.682Z,147984.78
2019-02-14T05:14:20.597Z,147941.31
2019-02-14T05:15:26.564Z,147889.66
2019-02-14T05:16:33.359Z,147925.58
2019-02-14T05:17:39.992Z,148011.88
2019-02-14T05:18:45.913Z,148030.12
2019-02-14T05:19:51.843Z,147960.22
2019-02-14T05:20:57.739Z,147883.38
2019-02-14T05:22:03.716Z,147851.27
2019-02-14T05:23:09.653Z,147838.02
2019-02-14T05:24:15.576Z,147914.84
2019-02-14T05:25:21.532Z,147893.45
2019-02-14T05:26:27.435Z,147881.47
2019-02-14T05:27:33.385Z,147872.66
2019-02-14T05:28:39.294Z,147904.77
2019-02-14T05:29:45.189Z,147946.33
2019-02-14T05:30:51.120Z,147911.69
2019-02-14T05:31:57.095Z,147898.47
2019-02-14T05:33:03.049Z,147977.23
2019-02-14T05:34:09.013Z,147975.33
2019-02-14T05:35:14.939Z,147906.03
2019-02-14T05:36:20.868Z,147848.09
2019-02-14T05:37:26.819Z,147851.27
2019-02-14T05:38:32.712Z,147926.20
2019-02-14T05:39:38.641Z,147962.08
2019-02-14T05:40:44.571Z,147974.06
2019-02-14T05:41:50.525Z,147933.75
2019-02-14T05:42:56.486Z,147909.83
2019-02-14T05:44:02.391Z,147942.58
2019-02-14T05:45:10.254Z,147980.98
2019-02-14T05:46:16.204Z,147948.23
2019-02-14T05:47:22.133Z,147916.13
2019-02-14T05:48:28.036Z,147917.38
2019-02-14T05:49:34.041Z,147909.20
2019-02-14T05:50:39.962Z,147935.03
2019-02-14T05:51:45.842Z,147958.95
2019-02-14T05:52:51.794Z,147964.61
2019-02-14T05:53:57.702Z,147946.33
2019-02-14T05:55:03.257Z,147913.58
2019-02-14T05:56:09.212Z,147868.27
2019-02-14T05:57:15.192Z,147860.09
2019-02-14T05:58:21.082Z,147884.64
2019-02-14T05:59:27.005Z,147943.84
2019-02-14T06:00:32.561Z,147946.97
2019-02-14T06:01:38.464Z,147934.39
2019-02-14T06:02:44.411Z,147950.13
2019-02-14T06:03:50.338Z,147905.41
2019-02-14T06:04:56.261Z,147863.84
2019-02-14T06:06:02.175Z,147868.27
2019-02-14T06:07:08.166Z,147916.75
2019-02-14T06:08:14.102Z,147969.03
2019-02-14T06:09:20.056Z,148007.44
2019-02-14T06:10:25.992Z,148011.88
2019-02-14T06:11:31.914Z,148003.06
2019-02-14T06:12:37.875Z,148009.98
2019-02-14T06:13:43.823Z,147986.05
2019-02-14T06:14:49.758Z,147937.50
2019-02-14T06:15:55.734Z,147923.03
2019-02-14T06:17:01.635Z,147884.00
2019-02-14T06:18:07.808Z,147853.75
2019-02-14T06:19:13.721Z,147785.13
2019-02-14T06:20:19.663Z,147765.64
2019-02-14T06:21:25.599Z,147763.09
2019-02-14T06:22:31.559Z,147783.91
2019-02-14T06:23:37.475Z,147770.66
2019-02-14T06:24:43.391Z,147768.12
2019-02-14T06:25:49.270Z,147753.66
2019-02-14T06:26:55.234Z,147754.28
2019-02-14T06:28:01.197Z,147755.55
2019-02-14T06:29:07.076Z,147752.39
2019-02-14T06:30:12.331Z,147765.00
2019-02-14T06:31:18.279Z,147759.34
2019-02-14T06:32:24.239Z,147749.27
2019-02-14T06:33:30.139Z,147741.72
2019-02-14T06:34:36.094Z,147742.36
2019-02-14T06:35:42.020Z,147723.47
2019-02-14T06:36:47.923Z,147731.64
2019-02-14T06:37:53.182Z,147786.37
2019-02-14T06:38:59.115Z,147858.19
2019-02-14T06:40:04.385Z,147919.87
2019-02-14T06:41:10.406Z,147940.05
2019-02-14T06:42:16.359Z,147940.05
2019-02-14T06:43:22.277Z,147944.47
2019-02-14T06:44:28.219Z,147892.83
2019-02-14T06:45:34.125Z,147884.64
2019-02-14T06:46:40.072Z,147860.09
2019-02-14T06:47:45.999Z,147794.56
2019-02-14T06:48:51.944Z,147780.09
2019-02-14T06:49:57.841Z,147758.08
2019-02-14T06:51:03.763Z,147745.47
2019-02-14T06:52:09.677Z,147746.73
2019-02-14T06:53:15.650Z,147749.27
2019-02-14T06:54:21.554Z,147763.73
2019-02-14T06:55:27.468Z,147802.75
2019-02-14T06:56:33.418Z,147844.94
2019-02-14T06:57:39.401Z,147833.00
2019-02-14T06:58:45.371Z,147809.72
2019-02-14T06:59:51.283Z,147772.55
2019-02-14T07:00:57.211Z,147756.19
2019-02-14T07:02:04.008Z,147728.47
2019-02-14T07:03:10.450Z,147710.22
2019-02-14T07:04:16.395Z,147725.94
2019-02-14T07:05:23.232Z,147740.45
2019-02-14T07:06:28.336Z,147728.47
2019-02-14T07:07:34.249Z,147737.92
2019-02-14T07:08:40.262Z,147764.38
2019-02-14T07:09:46.183Z,147814.73
2019-02-14T07:10:52.100Z,147842.45
2019-02-14T07:11:57.997Z,147834.27
2019-02-14T07:13:03.612Z,147867.00
2019-02-14T07:14:09.550Z,147950.77
2019-02-14T07:15:14.776Z,147931.22
2019-02-14T07:16:20.663Z,147900.38
2019-02-14T07:17:26.583Z,147868.27
2019-02-14T07:18:32.601Z,147827.94
2019-02-14T07:19:38.543Z,147799.63
2019-02-14T07:20:44.156Z,147795.19
2019-02-14T07:21:50.055Z,147801.53
2019-02-14T07:22:56.007Z,147834.89
2019-02-14T07:24:01.956Z,147824.81
2019-02-14T07:25:07.201Z,147808.44
2019-02-14T07:26:13.147Z,147809.72
2019-02-14T07:27:19.140Z,147844.94
2019-02-14T07:28:25.133Z,147885.28
2019-02-14T07:29:31.214Z,147882.75
2019-02-14T07:30:37.125Z,147867.64
2019-02-14T07:31:43.120Z,147875.19
2019-02-14T07:32:49.049Z,147889.66
2019-02-14T07:33:55.016Z,147870.12
2019-02-14T07:35:00.930Z,147859.45
2019-02-14T07:36:06.657Z,147860.09
2019-02-14T07:37:12.602Z,147866.38
2019-02-14T07:38:18.323Z,147878.31
2019-02-14T07:39:24.221Z,147887.75
2019-02-14T07:40:30.213Z,147890.92
2019-02-14T07:41:36.126Z,147894.09
2019-02-14T07:42:41.717Z,147897.22
2019-02-14T07:43:47.684Z,147902.28
2019-02-14T07:44:53.612Z,147911.09
2019-02-14T07:45:59.513Z,147922.41
2019-02-14T07:47:05.416Z,147948.23
2019-02-14T07:48:11.402Z,147996.09
2019-02-14T07:49:17.374Z,148016.91
2019-02-14T07:50:23.295Z,148009.34
2019-02-14T07:51:29.236Z,148037.09
2019-02-14T07:52:35.151Z,148074.23
2019-02-14T07:53:41.138Z,148085.59
2019-02-14T07:54:47.084Z,148118.36
2019-02-14T07:55:53.059Z,148107.62
2019-02-14T07:56:59.042Z,148096.31
2019-02-14T07:58:04.989Z,148099.44
2019-02-14T07:59:10.875Z,148088.13
2019-02-14T08:00:16.095Z,148076.14
2019-02-14T08:01:22.128Z,148091.25
2019-02-14T08:02:28.083Z,148141.67
2019-02-14T08:03:34.167Z,148176.98
2019-02-14T08:04:40.065Z,148207.84
2019-02-14T08:05:46.541Z,148169.42
2019-02-14T08:06:52.934Z,148168.16
2019-02-14T08:08:00.627Z,148144.20
2019-02-14T08:09:03.960Z,148140.41
2019-02-14T08:10:11.012Z,148139.77
2019-02-14T08:11:16.932Z,148140.41
2019-02-14T08:12:22.905Z,148139.77
2019-02-14T08:13:28.828Z,148156.16
2019-02-14T08:14:34.732Z,148229.95
2019-02-14T08:15:40.639Z,148275.95
2019-02-14T08:16:46.577Z,148253.91
2019-02-14T08:17:52.488Z,148238.78
2019-02-14T08:19:00.059Z,148252.64
2019-02-14T08:20:03.734Z,148275.95
2019-02-14T08:21:09.624Z,148338.41
2019-02-14T08:22:15.555Z,148332.13
2019-02-14T08:23:21.505Z,148367.41
2019-02-14T08:24:27.415Z,148354.81
2019-02-14T08:25:33.290Z,148320.75
2019-02-14T08:26:39.904Z,148354.81
2019-02-14T08:27:46.349Z,148367.41
2019-02-14T08:28:52.280Z,148380.67
2019-02-14T08:29:58.181Z,148369.31
2019-02-14T08:31:04.061Z,148399.61
2019-02-14T08:32:09.973Z,148428.61
2019-02-14T08:33:15.875Z,148440.63
2019-02-14T08:34:21.792Z,148429.25
2019-02-14T08:35:27.695Z,148416.02
2019-02-14T08:36:33.623Z,148443.73
2019-02-14T08:37:45.364Z,148454.48
2019-02-14T08:38:45.669Z,148475.97
2019-02-14T08:39:51.615Z,148540.95
2019-02-14T08:40:57.493Z,148581.97
2019-02-14T08:42:03.411Z,148616.70
2019-02-14T08:43:09.312Z,148619.88
2019-02-14T08:44:15.257Z,148570.59
2019-02-14T08:45:21.179Z,148570.59
2019-02-14T08:46:27.162Z,148596.47
2019-02-14T08:47:33.233Z,148623.64
2019-02-14T08:48:39.370Z,148661.55
2019-02-14T08:49:45.252Z,148616.06
2019-02-14T08:50:51.548Z,148592.72
2019-02-14T08:51:57.456Z,148626.17
2019-02-14T08:53:03.362Z,148629.30
2019-02-14T08:54:09.331Z,148640.05
2019-02-14T08:55:15.244Z,148626.81
2019-02-14T08:56:21.131Z,148620.47
2019-02-14T08:57:27.021Z,148652.06
2019-02-14T08:58:33.042Z,148684.25
2019-02-14T08:59:38.956Z,148696.28
2019-02-14T09:00:44.884Z,148709.52
2019-02-14T09:01:50.819Z,148710.16
2019-02-14T09:02:56.785Z,148732.25
2019-02-14T09:04:02.691Z,148738.59
2019-02-14T09:05:07.919Z,148741.72
2019-02-14T09:06:13.807Z,148780.91
2019-02-14T09:07:19.733Z,148763.22
2019-02-14T09:08:25.683Z,148701.95
2019-02-14T09:09:31.586Z,148704.48
2019-02-14T09:10:37.740Z,148718.37
2019-02-14T09:11:43.670Z,148747.39
2019-02-14T09:12:49.604Z,148713.92
2019-02-14T09:13:55.634Z,148741.09
2019-02-14T09:15:01.530Z,148763.86
2019-02-14T09:16:07.451Z,148761.31
2019-02-14T09:17:13.366Z,148708.87
2019-02-14T09:18:19.283Z,148724.67
2019-02-14T09:19:25.189Z,148715.19
2019-02-14T09:20:31.072Z,148731.61
2019-02-14T09:21:36.993Z,148737.33
2019-02-14T09:22:43.052Z,148719.00
2019-02-14T09:23:48.977Z,148731.61
2019-02-14T09:24:54.900Z,148741.09
2019-02-14T09:26:02.392Z,148769.53
2019-02-14T09:27:06.511Z,148790.98
2019-02-14T09:28:12.442Z,148768.25
2019-02-14T09:29:18.391Z,148750.56
2019-02-14T09:30:25.272Z,148751.84
2019-02-14T09:31:31.757Z,148753.75
2019-02-14T09:32:37.447Z,148714.56
2019-02-14T09:33:43.345Z,148746.80
2019-02-14T09:34:49.263Z,148744.89
2019-02-14T09:35:55.210Z,148767.62
2019-02-14T09:37:01.130Z,148812.48
2019-02-14T09:38:07.054Z,148785.95
2019-02-14T09:39:12.967Z,148755.02
2019-02-14T09:40:18.272Z,148782.77
2019-02-14T09:41:24.152Z,148822.59
2019-02-14T09:42:30.075Z,148840.89
2019-02-14T09:43:35.984Z,148873.16
2019-02-14T09:44:41.943Z,148899.66
2019-02-14T09:45:47.906Z,148937.64
2019-02-14T09:46:53.840Z,148925.56
2019-02-14T09:47:59.702Z,148964.83
2019-02-14T09:49:05.911Z,148957.88
2019-02-14T09:50:11.853Z,149014.13
2019-02-14T09:51:19.055Z,148986.30
2019-02-14T09:52:25.441Z,149002.09
2019-02-14T09:53:31.374Z,148963.56
2019-02-14T09:54:38.264Z,148979.34
2019-02-14T09:55:43.274Z,148924.34
2019-02-14T09:56:49.162Z,148955.34
2019-02-14T09:57:55.081Z,148958.52
2019-02-14T09:59:01.100Z,149000.88
2019-02-14T10:00:06.333Z,149075.47
2019-02-14T10:01:12.279Z,149066.61
2019-02-14T10:02:18.216Z,149113.38
2019-02-14T10:03:24.147Z,149142.48
2019-02-14T10:04:30.176Z,149144.41
2019-02-14T10:05:36.104Z,149108.34
2019-02-14T10:06:42.013Z,149126.05
2019-02-14T10:07:47.910Z,149084.31
2019-02-14T10:08:53.839Z,149097.58
2019-02-14T10:10:00.015Z,149114.66
2019-02-14T10:11:05.997Z,149136.19
2019-02-14T10:12:11.896Z,149106.44
2019-02-14T10:13:17.814Z,149124.78
2019-02-14T10:14:23.731Z,149103.89
2019-02-14T10:15:29.305Z,149127.31
2019-02-14T10:16:35.292Z,149141.84
2019-02-14T10:17:41.215Z,149081.78
2019-02-14T10:18:47.122Z,149098.22
2019-02-14T10:19:53.068Z,149038.78
2019-02-14T10:20:58.961Z,149000.88
2019-02-14T10:22:04.889Z,148981.89
2019-02-14T10:23:10.882Z,149052.67
2019-02-14T10:24:16.773Z,149052.03
2019-02-14T10:25:22.733Z,149093.81
2019-02-14T10:26:28.661Z,149096.94
2019-02-14T10:27:34.605Z,149099.48
2019-02-14T10:28:40.532Z,149134.91
2019-02-14T10:29:46.594Z,149078.59
2019-02-14T10:30:52.601Z,149063.44
2019-02-14T10:31:58.471Z,149103.25
2019-02-14T10:33:04.085Z,149131.72
2019-02-14T10:34:10.045Z,149095.03
2019-02-14T10:35:16.027Z,149100.75
2019-02-14T10:36:21.936Z,149057.13
2019-02-14T10:37:27.875Z,149062.16
2019-02-14T10:38:33.773Z,149068.52
2019-02-14T10:39:39.683Z,149071.64
2019-02-14T10:40:45.626Z,149096.30
2019-02-14T10:41:51.558Z,149105.80
2019-02-14T10:42:57.446Z,149115.28
2019-02-14T10:44:03.381Z,149155.11
2019-02-14T10:45:08.685Z,149169.69
2019-02-14T10:46:14.591Z,149183.59
2019-02-14T10:47:20.491Z,149202.58
2019-02-14T10:48:26.368Z,149258.23
2019-02-14T10:49:32.278Z,149293.03
2019-02-14T10:50:38.220Z,149303.17
2019-02-14T10:51:44.112Z,149332.89
2019-02-14T10:52:50.012Z,149335.44
2019-02-14T10:53:55.932Z,149353.16
2019-02-14T10:55:02.419Z,149317.72
2019-02-14T10:56:08.830Z,149363.94
2019-02-14T10:57:14.703Z,149424.06
2019-02-14T10:58:20.577Z,149441.75
2019-02-14T10:59:26.530Z,149425.94
2019-02-14T11:00:31.520Z,149407.56
2019-02-14T11:01:37.056Z,149439.25
2019-02-14T11:02:42.570Z,149484.80
2019-02-14T11:03:48.392Z,149531.05
2019-02-14T11:04:53.662Z,149517.72
2019-02-14T11:05:59.673Z,149543.73
2019-02-14T11:07:05.555Z,149605.81
2019-02-14T11:08:11.455Z,149645.70
2019-02-14T11:09:17.074Z,149669.83
2019-02-14T11:10:22.292Z,149711.00
2019-02-14T11:11:27.831Z,149731.25
2019-02-14T11:12:33.752Z,149736.98
2019-02-14T11:13:39.643Z,149697.67
2019-02-14T11:14:45.175Z,149767.38
2019-02-14T11:15:51.059Z,149750.91
2019-02-14T11:16:57.457Z,149800.97
2019-02-14T11:18:02.990Z,149793.36
2019-02-14T11:19:08.903Z,149811.11
2019-02-14T11:20:14.107Z,149850.39
2019-02-14T11:21:20.065Z,149859.91
2019-02-14T11:22:25.972Z,149892.22
2019-02-14T11:23:31.872Z,149895.41
2019-02-14T11:24:37.778Z,149935.98
2019-02-14T11:25:43.735Z,149981.66
2019-02-14T11:26:49.700Z,150021.64
2019-02-14T11:27:55.643Z,150061.59
2019-02-14T11:29:01.669Z,150062.22
2019-02-14T11:30:08.279Z,150086.97
2019-02-14T11:31:14.202Z,150044.47
2019-02-14T11:32:20.084Z,150056.53
2019-02-14T11:33:26.019Z,150004.52
2019-02-14T11:34:31.940Z,150017.23
2019-02-14T11:35:37.881Z,150069.19
2019-02-14T11:36:43.791Z,150074.94
2019-02-14T11:37:49.667Z,150136.48
2019-02-14T11:38:55.555Z,150177.72
2019-02-14T11:40:01.470Z,150158.67
2019-02-14T11:41:07.471Z,150229.12
2019-02-14T11:42:13.444Z,150210.06
2019-02-14T11:43:19.328Z,150235.45
2019-02-14T11:44:24.896Z,150237.37
2019-02-14T11:45:30.071Z,150176.44
2019-02-14T11:46:35.660Z,150213.27
2019-02-14T11:47:41.563Z,150206.87
2019-02-14T11:48:47.952Z,150253.23
2019-02-14T11:49:53.523Z,150244.98
2019-02-14T11:50:59.416Z,150267.17
2019-02-14T11:52:05.357Z,150276.70
2019-02-14T11:53:14.230Z,150269.09
2019-02-14T11:54:17.325Z,150234.19
2019-02-14T11:55:23.248Z,150267.17
2019-02-14T11:56:29.223Z,150303.38
2019-02-14T11:57:35.151Z,150321.16
2019-02-14T11:58:41.088Z,150295.75
2019-02-14T11:59:47.028Z,150231.62
2019-02-14T12:00:52.720Z,150229.12
2019-02-14T12:01:58.626Z,150257.02
2019-02-14T12:03:04.562Z,150247.48
2019-02-14T12:04:10.543Z,150313.53
2019-02-14T12:05:16.503Z,150312.27
2019-02-14T12:06:22.454Z,150283.67
2019-02-14T12:07:28.321Z,150257.02
2019-02-14T12:08:34.213Z,150297.67
2019-02-14T12:09:40.149Z,150359.22
2019-02-14T12:10:46.069Z,150368.09
2019-02-14T12:11:51.658Z,150362.41
2019-02-14T12:12:57.546Z,150389.72
2019-02-14T12:14:03.458Z,150449.47
2019-02-14T12:15:08.692Z,150460.86
2019-02-14T12:16:14.568Z,150471.03
2019-02-14T12:17:20.510Z,150464.69
2019-02-14T12:18:26.376Z,150446.27
2019-02-14T12:19:32.252Z,150445.63
2019-02-14T12:20:38.231Z,150427.84
2019-02-14T12:21:44.175Z,150454.53
2019-02-14T12:22:50.063Z,150399.30
2019-02-14T12:23:55.971Z,150409.42
2019-02-14T12:25:01.962Z,150398.03
2019-02-14T12:26:07.922Z,150398.03
2019-02-14T12:27:14.055Z,150404.36
2019-02-14T12:28:19.992Z,150460.86
2019-02-14T12:29:25.960Z,150495.80
2019-02-14T12:30:31.902Z,150504.69
2019-02-14T12:31:37.843Z,150497.08